»·PEaware :: UAL996 KEUG-KSFO

UAL996 :: KEUG-KSFO

FLIGHT INFORMATION

Flight Status: Arrived
Operator:
United Airlines
More flights by this operator :: More flights under this callsign
Pilot: Brandon G. (13)
Aircraft: BOEING 737-800
(B738)
More flights by this aircraft type
Origin: KEUG Mahlon Sweet
United States
Destination: KSFO San Francisco Intl
United States
More flights between these airports :: More routes between these airports
Route: +EUG9 RBG MLBEC BDEGA2
File this flight plan on PilotEdge
Remarks:
Altitude:
(Current/Filed)
35,000ft
Speed:
(Current/Filed)
425kts
Departed: 29-Dec-17 10:27 PM
Arrived: 29-Dec-17 11:47 PM
Distance/Time
Traveled:
392nm/1:19
Distance/Time
To Go:
Arrived

Flight Plot

Page will automatically refresh every two minutes.

Flight plan parsing failed; only flown route is shown


Map Options




Map Legend


Flown Route
Filed Route
Departure Airport
Arrival Airport
Navaid (VOR, NDB)
Fix

Horizontal Profiles

Position Reports

Time Latitude Longitude Heading Altitude Ground
Speed
29-Dec-17 21:45 44.119485 -123.214318 57 370ft 0kts
29-Dec-17 21:46 44.119485 -123.214318 57 370ft 0kts
29-Dec-17 21:47 44.119485 -123.214318 57 370ft 0kts
29-Dec-17 21:48 44.119485 -123.214318 57 370ft 0kts
29-Dec-17 21:49 44.119485 -123.214318 57 370ft 0kts
29-Dec-17 21:50 44.119485 -123.214318 57 370ft 0kts
29-Dec-17 21:51 44.119485 -123.214318 57 370ft 0kts
29-Dec-17 21:52 44.119485 -123.214318 57 370ft 0kts
29-Dec-17 21:53 44.119485 -123.214318 57 370ft 0kts
29-Dec-17 21:54 44.119485 -123.214318 57 370ft 0kts
29-Dec-17 21:55 44.119485 -123.214318 57 370ft 0kts
29-Dec-17 21:56 44.119485 -123.214318 57 370ft 0kts
29-Dec-17 21:57 44.119485 -123.214318 57 370ft 0kts
29-Dec-17 21:58 44.119485 -123.214318 57 370ft 0kts
29-Dec-17 21:59 44.119485 -123.214318 57 370ft 0kts
29-Dec-17 22:00 44.119485 -123.214318 57 370ft 0kts
29-Dec-17 22:01 44.119485 -123.214318 57 370ft 0kts
29-Dec-17 22:02 44.119485 -123.214318 57 370ft 0kts
29-Dec-17 22:03 44.119485 -123.214318 57 370ft 0kts
29-Dec-17 22:04 44.119485 -123.214318 57 370ft 0kts
29-Dec-17 22:05 44.119485 -123.214318 57 370ft 0kts
29-Dec-17 22:06 44.119485 -123.214318 57 370ft 0kts
29-Dec-17 22:07 44.119485 -123.214318 57 370ft 0kts
29-Dec-17 22:08 44.119485 -123.214318 57 370ft 0kts
29-Dec-17 22:09 44.119485 -123.214318 57 370ft 0kts
29-Dec-17 22:10 44.119485 -123.214318 57 370ft 0kts
29-Dec-17 22:11 44.119485 -123.214318 57 370ft 0kts
29-Dec-17 22:12 44.119485 -123.214318 57 370ft 0kts
29-Dec-17 22:13 44.119485 -123.214318 57 370ft 0kts
29-Dec-17 22:14 44.119485 -123.214318 57 370ft 0kts
29-Dec-17 22:15 44.119485 -123.214318 57 370ft 0kts
29-Dec-17 22:16 44.119485 -123.214318 57 370ft 0kts
29-Dec-17 22:17 44.119485 -123.214318 57 370ft 0kts
29-Dec-17 22:18 44.119485 -123.214318 57 370ft 0kts
29-Dec-17 22:19 44.119485 -123.214318 57 370ft 0kts
29-Dec-17 22:20 44.119485 -123.214318 57 370ft 0kts
29-Dec-17 22:21 44.119485 -123.214318 57 370ft 0kts
29-Dec-17 22:22 44.119159 -123.214440 328 370ft 2kts
29-Dec-17 22:23 44.118892 -123.214085 316 371ft 0kts
29-Dec-17 22:24 44.118892 -123.214084 316 371ft 0kts
29-Dec-17 22:25 44.118892 -123.214085 316 371ft 0kts
29-Dec-17 22:26 44.118892 -123.214085 316 371ft 0kts
29-Dec-17 22:27 44.118892 -123.214085 316 371ft 0kts
29-Dec-17 22:28 44.118492 -123.216049 212 371ft 17kts
29-Dec-17 22:29 44.114837 -123.216957 186 371ft 0kts
29-Dec-17 22:30 44.114309 -123.217442 224 370ft 10kts
29-Dec-17 22:31 44.114633 -123.218834 359 368ft 0kts
29-Dec-17 22:32 44.114633 -123.218834 359 368ft 0kts
29-Dec-17 22:33 44.142479 -123.219011 356 1643ft 171kts
29-Dec-17 22:34 44.200978 -123.205312 9 3383ft 259kts
29-Dec-17 22:35 44.274863 -123.182247 6 7002ft 285kts
29-Dec-17 22:36 44.335638 -123.224787 285 8993ft 249kts
29-Dec-17 22:37 44.334049 -123.322680 264 11689ft 275kts
29-Dec-17 22:38 44.329973 -123.429737 264 15396ft 282kts
29-Dec-17 22:39 44.283422 -123.509193 202 18702ft 316kts
29-Dec-17 22:40 44.190628 -123.501302 186 21678ft 349kts
29-Dec-17 22:41 44.092796 -123.486696 187 23910ft 362kts
29-Dec-17 22:42 43.991589 -123.471609 187 26431ft 375kts
29-Dec-17 22:43 43.889711 -123.456596 187 28250ft 400kts
29-Dec-17 22:44 43.780312 -123.440197 189 31066ft 395kts
29-Dec-17 22:45 43.673361 -123.424227 190 33592ft 388kts
29-Dec-17 22:46 43.567063 -123.408603 190 35110ft 394kts
29-Dec-17 22:47 43.453796 -123.392309 189 35129ft 422kts
29-Dec-17 22:48 43.338331 -123.375262 189 35128ft 421kts
29-Dec-17 22:49 43.222732 -123.358223 189 35128ft 421kts
29-Dec-17 22:50 43.107489 -123.344951 191 35125ft 417kts
29-Dec-17 22:51 42.992301 -123.334624 190 35124ft 420kts
29-Dec-17 22:52 42.878009 -123.324264 188 35134ft 430kts
29-Dec-17 22:53 42.759357 -123.313349 188 35143ft 429kts
29-Dec-17 22:54 42.640687 -123.302545 188 35169ft 430kts
29-Dec-17 22:55 42.522363 -123.291764 188 35204ft 429kts
29-Dec-17 22:56 42.404665 -123.281042 188 35206ft 430kts
29-Dec-17 22:57 42.286680 -123.270294 188 35207ft 429kts
29-Dec-17 22:58 42.168587 -123.259529 188 35204ft 429kts
29-Dec-17 22:59 42.050705 -123.248770 188 35201ft 430kts
29-Dec-17 23:00 41.934419 -123.238186 188 35205ft 431kts
29-Dec-17 23:01 41.819010 -123.227650 188 35221ft 429kts
29-Dec-17 23:02 41.700264 -123.216836 187 35230ft 429kts
29-Dec-17 23:03 41.581379 -123.205989 188 35234ft 430kts
29-Dec-17 23:04 41.462661 -123.195170 187 35236ft 429kts
29-Dec-17 23:05 41.343872 -123.184335 187 35237ft 430kts
29-Dec-17 23:06 41.225028 -123.173511 187 35234ft 431kts
29-Dec-17 23:07 41.106152 -123.162662 187 35238ft 430kts
29-Dec-17 23:08 40.987078 -123.151872 185 35223ft 434kts
29-Dec-17 23:09 40.871419 -123.141250 184 35221ft 434kts
29-Dec-17 23:10 40.751919 -123.130337 184 35220ft 434kts
29-Dec-17 23:11 40.631567 -123.119360 184 35219ft 433kts
29-Dec-17 23:12 40.511718 -123.108420 184 35217ft 434kts
29-Dec-17 23:13 40.391718 -123.097457 184 35214ft 435kts
29-Dec-17 23:14 40.271226 -123.086466 184 35217ft 434kts
29-Dec-17 23:15 40.151476 -123.075550 184 35234ft 434kts
29-Dec-17 23:16 40.030987 -123.064541 184 35236ft 435kts
29-Dec-17 23:17 39.910803 -123.053576 184 35233ft 436kts
29-Dec-17 23:18 39.792988 -123.042802 184 35237ft 435kts
29-Dec-17 23:19 39.672983 -123.031863 184 35237ft 436kts
29-Dec-17 23:20 39.552642 -123.020879 184 35237ft 435kts
29-Dec-17 23:21 39.432551 -123.009911 184 35239ft 436kts
29-Dec-17 23:22 39.311813 -122.998887 184 35235ft 436kts
29-Dec-17 23:23 39.191667 -122.987919 184 35238ft 436kts
29-Dec-17 23:24 39.071179 -122.976918 184 35238ft 436kts
29-Dec-17 23:25 38.958322 -122.966477 184 34622ft 386kts
29-Dec-17 23:26 38.855446 -122.954239 173 32816ft 418kts
29-Dec-17 23:27 38.743420 -122.920253 172 30691ft 418kts
29-Dec-17 23:28 38.630685 -122.886800 172 28592ft 417kts
29-Dec-17 23:29 38.520609 -122.854267 172 26545ft 400kts
29-Dec-17 23:30 38.414714 -122.823200 172 24577ft 387kts
29-Dec-17 23:31 38.311987 -122.793087 172 22672ft 375kts
29-Dec-17 23:32 38.212681 -122.763988 171 20837ft 364kts
29-Dec-17 23:33 38.116039 -122.735956 171 19051ft 353kts
29-Dec-17 23:34 38.022281 -122.708792 171 17312ft 343kts
29-Dec-17 23:35 37.931118 -122.682380 171 15619ft 334kts
29-Dec-17 23:36 37.853630 -122.625350 142 13943ft 337kts
29-Dec-17 23:37 37.783334 -122.550225 143 12086ft 323kts
29-Dec-17 23:38 37.717404 -122.480343 142 10535ft 305kts
29-Dec-17 23:39 37.653418 -122.412339 141 8610ft 297kts
29-Dec-17 23:40 37.589515 -122.355274 160 7406ft 269kts
29-Dec-17 23:41 37.522507 -122.324980 161 7096ft 270kts
29-Dec-17 23:42 37.452721 -122.293633 161 5739ft 263kts
29-Dec-17 23:43 37.388499 -122.265303 161 5180ft 229kts
29-Dec-17 23:44 37.353086 -122.211254 77 4011ft 220kts
29-Dec-17 23:45 37.398878 -122.177555 1 3977ft 188kts
29-Dec-17 23:46 37.449436 -122.175961 1 4007ft 183kts
29-Dec-17 23:47 37.498799 -122.174432 1 3123ft 174kts
29-Dec-17 23:48 37.541166 -122.190426 300 2943ft 177kts
29-Dec-17 23:49 37.559859 -122.235072 298 2213ft 163kts
29-Dec-17 23:50 37.580879 -122.285034 298 1333ft 160kts
29-Dec-17 23:51 37.604069 -122.340202 298 364ft 139kts
29-Dec-17 23:52 37.617264 -122.371726 298 14ft 56kts
29-Dec-17 23:53 37.618959 -122.379807 272 30ft 7kts
29-Dec-17 23:54 37.619441 -122.381431 296 31ft 2kts
29-Dec-17 23:55 37.620202 -122.383307 298 31ft 3kts
29-Dec-17 23:56 37.620666 -122.384561 271 31ft 7kts
29-Dec-17 23:57 37.619740 -122.385574 208 31ft 2kts
29-Dec-17 23:58 37.619642 -122.386343 307 31ft 4kts
29-Dec-17 23:59 37.619889 -122.386772 307 31ft 0kts
30-Dec-17 00:00 37.619889 -122.386772 307 31ft 0kts
30-Dec-17 00:01 37.619889 -122.386772 307 31ft 0kts
30-Dec-17 00:02 37.619889 -122.386772 307 31ft 0kts
30-Dec-17 00:03 37.619889 -122.386772 307 31ft 0kts
30-Dec-17 00:04 37.619889 -122.386772 307 31ft 0kts
30-Dec-17 00:05 37.619889 -122.386772 307 31ft 0kts
30-Dec-17 00:06 37.619889 -122.386772 307 31ft 0kts

Navigation Log

Ident Type
Flight plan parsing failed, navigation log unavailable